createdAt,value
2018-04-30T09:29:39.536Z,13.67
2018-04-30T09:32:07.715Z,13.67
2018-04-30T09:34:35.934Z,13.64
2018-04-30T09:37:04.100Z,13.71
2018-04-30T09:39:32.462Z,13.39
2018-04-30T09:42:00.816Z,13.05
2018-04-30T09:44:29.095Z,13.34
2018-04-30T09:46:57.282Z,13.41
2018-04-30T09:49:28.832Z,13.33
2018-04-30T09:52:46.445Z,13.46
2018-04-30T09:55:13.188Z,13.22
2018-04-30T09:57:41.380Z,13.11
2018-04-30T10:00:09.848Z,13.41
2018-04-30T10:02:38.041Z,13.32
2018-04-30T10:05:06.189Z,13.48
2018-04-30T10:07:34.376Z,13.42
2018-04-30T10:10:02.848Z,13.46
2018-04-30T10:12:31.023Z,13.46
2018-04-30T10:14:59.590Z,13.22
2018-04-30T10:17:27.773Z,13.16
2018-04-30T10:19:55.989Z,13.47
2018-04-30T10:22:24.198Z,13.39
2018-04-30T10:24:52.344Z,13.43
2018-04-30T10:27:20.561Z,13.40
2018-04-30T10:29:48.838Z,13.41
2018-04-30T10:32:17.226Z,13.24
2018-04-30T10:34:48.948Z,13.31
2018-04-30T10:37:17.006Z,13.43
2018-04-30T10:39:45.169Z,13.34
2018-04-30T10:42:13.402Z,13.56
2018-04-30T10:44:41.736Z,13.62
2018-04-30T10:47:09.902Z,13.66
2018-04-30T10:49:38.108Z,13.64
2018-04-30T10:52:06.274Z,13.66
2018-04-30T10:54:34.458Z,13.78
2018-04-30T10:57:03.786Z,13.70
2018-04-30T10:59:32.151Z,13.89
2018-04-30T11:02:00.344Z,13.89
2018-04-30T11:04:28.515Z,13.90
2018-04-30T11:06:56.704Z,14.01
2018-04-30T11:09:24.879Z,14.03
2018-04-30T11:11:53.085Z,14.03
2018-04-30T11:14:21.442Z,14.06
2018-04-30T11:16:49.604Z,14.07
2018-04-30T11:19:17.788Z,14.08
2018-04-30T11:21:46.318Z,14.13
2018-04-30T11:24:14.481Z,14.15
2018-04-30T11:26:42.753Z,14.19
2018-04-30T11:29:11.230Z,14.29
2018-04-30T11:31:39.425Z,14.32
2018-04-30T11:34:07.881Z,14.39
2018-04-30T11:36:36.085Z,14.49
2018-04-30T11:39:05.657Z,14.60
2018-04-30T11:41:33.849Z,14.72
2018-04-30T11:44:02.040Z,14.83
2018-04-30T11:46:30.316Z,15.04
2018-04-30T11:48:58.468Z,15.24
2018-04-30T11:51:27.077Z,15.18
2018-04-30T11:53:55.607Z,15.53
2018-04-30T11:56:23.790Z,15.64
2018-04-30T11:58:52.358Z,15.77
2018-04-30T12:01:20.658Z,15.84
2018-04-30T12:03:48.795Z,15.90
2018-04-30T12:06:16.982Z,15.70
2018-04-30T12:08:45.153Z,15.80
2018-04-30T12:11:13.702Z,15.68
2018-04-30T12:13:41.899Z,15.62
2018-04-30T12:16:10.360Z,15.35
2018-04-30T12:18:38.685Z,15.21
2018-04-30T12:21:06.789Z,15.42
2018-04-30T12:23:34.981Z,15.58
2018-04-30T12:26:03.169Z,15.64
2018-04-30T12:28:31.343Z,15.62
2018-04-30T12:30:59.586Z,15.64
2018-04-30T12:33:27.916Z,15.70
2018-04-30T12:35:56.149Z,15.78
2018-04-30T12:38:24.435Z,15.97
2018-04-30T12:40:52.647Z,16.21
2018-04-30T12:43:20.868Z,16.36
2018-04-30T12:45:49.204Z,16.52
2018-04-30T12:48:17.389Z,16.63
2018-04-30T12:50:45.644Z,16.57
2018-04-30T12:53:14.192Z,16.47
2018-04-30T12:55:43.105Z,16.49
2018-04-30T12:58:11.418Z,16.51
2018-04-30T13:00:39.547Z,16.51
2018-04-30T13:03:09.205Z,16.45
2018-04-30T13:05:38.517Z,16.31
2018-04-30T13:08:07.093Z,15.81
2018-04-30T13:10:36.432Z,14.69
2018-04-30T13:13:05.515Z,13.82
2018-04-30T13:15:34.674Z,13.78
2018-04-30T13:18:02.817Z,13.73
2018-04-30T13:20:30.993Z,13.85
2018-04-30T13:22:59.158Z,13.75
2018-04-30T13:25:27.311Z,13.91
2018-04-30T13:27:55.551Z,14.11
2018-04-30T13:30:23.739Z,14.55
2018-04-30T13:32:51.942Z,14.42
2018-04-30T13:35:20.134Z,14.49
2018-04-30T13:37:48.275Z,14.32
2018-04-30T13:40:16.643Z,14.54
2018-04-30T13:42:44.858Z,14.45
2018-04-30T13:45:13.211Z,14.38
2018-04-30T13:47:41.388Z,14.27
2018-04-30T13:50:09.547Z,13.72
2018-04-30T13:52:37.755Z,13.77
2018-04-30T13:55:05.911Z,13.94
2018-04-30T13:57:34.940Z,13.83
2018-04-30T14:00:03.788Z,14.02
2018-04-30T14:02:32.575Z,14.15
2018-04-30T14:05:00.802Z,14.27
2018-04-30T14:07:29.523Z,14.57
2018-04-30T14:09:57.689Z,14.45
2018-04-30T14:12:25.875Z,14.77
2018-04-30T14:14:54.890Z,14.91
2018-04-30T14:17:23.053Z,14.94
2018-04-30T14:19:51.198Z,14.84
2018-04-30T14:22:19.395Z,14.79
2018-04-30T14:24:47.571Z,14.32
2018-04-30T14:27:15.742Z,14.02
2018-04-30T14:29:43.899Z,13.99
2018-04-30T14:32:12.069Z,14.04
2018-04-30T14:34:40.249Z,13.51
2018-04-30T14:37:08.419Z,12.96
2018-04-30T14:39:36.879Z,13.11
2018-04-30T14:42:05.066Z,12.70
2018-04-30T14:44:33.446Z,12.73
2018-04-30T14:47:01.758Z,13.02
2018-04-30T14:49:29.900Z,12.80
2018-04-30T14:51:58.085Z,13.15
2018-04-30T14:54:26.293Z,13.49
2018-04-30T14:56:54.451Z,13.39
2018-04-30T14:59:22.923Z,12.85
2018-04-30T15:01:51.098Z,13.09
2018-04-30T15:04:19.284Z,12.70
2018-04-30T15:06:47.414Z,12.98
2018-04-30T15:09:15.607Z,13.26
2018-04-30T15:11:43.779Z,12.89
2018-04-30T15:14:11.939Z,13.24
2018-04-30T15:16:40.113Z,13.55
2018-04-30T15:19:08.291Z,13.63
2018-04-30T15:21:36.472Z,13.91
2018-04-30T15:24:04.696Z,14.05
2018-04-30T15:26:32.833Z,14.22
2018-04-30T15:29:01.006Z,13.85
2018-04-30T15:31:29.170Z,13.66
2018-04-30T15:33:57.356Z,13.29
2018-04-30T15:36:25.524Z,13.30
2018-04-30T15:38:53.676Z,13.51
2018-04-30T15:41:21.850Z,13.79
2018-04-30T15:43:50.017Z,14.05
2018-04-30T15:46:18.219Z,14.05
2018-04-30T15:48:46.390Z,13.75
2018-04-30T15:51:14.568Z,13.28
2018-04-30T15:53:42.905Z,13.32
2018-04-30T15:56:11.043Z,13.07
2018-04-30T15:58:39.246Z,13.36
2018-04-30T16:01:07.413Z,12.88
2018-04-30T16:03:35.543Z,13.06
2018-04-30T16:06:03.692Z,13.27
2018-04-30T16:08:31.880Z,13.51
2018-04-30T16:11:00.040Z,13.57
2018-04-30T16:13:28.219Z,13.69
2018-04-30T16:15:56.423Z,13.96
2018-04-30T16:18:24.579Z,13.90
2018-04-30T16:20:53.034Z,13.57
2018-04-30T16:23:21.207Z,13.96
2018-04-30T16:25:49.396Z,13.54
2018-04-30T16:28:17.590Z,13.40
2018-04-30T16:30:45.989Z,13.21
2018-04-30T16:33:14.128Z,13.03
2018-04-30T16:35:42.332Z,12.89
2018-04-30T16:38:10.484Z,13.28
2018-04-30T16:40:38.654Z,13.24
2018-04-30T16:43:06.827Z,13.38
2018-04-30T16:45:34.985Z,13.40
2018-04-30T16:48:03.133Z,13.11
2018-04-30T16:50:31.323Z,13.52
2018-04-30T16:52:59.527Z,13.08
2018-04-30T16:55:27.639Z,13.38
2018-04-30T16:57:55.781Z,13.26
2018-04-30T17:00:24.247Z,12.53
2018-04-30T17:02:52.436Z,12.69
2018-04-30T17:05:20.566Z,12.62
2018-04-30T17:07:48.739Z,12.67
2018-04-30T17:10:16.902Z,12.84
2018-04-30T17:12:45.073Z,12.91
2018-04-30T17:15:13.249Z,12.71
2018-04-30T17:17:41.535Z,12.80
2018-04-30T17:20:09.682Z,12.95
2018-04-30T17:22:37.855Z,12.80
2018-04-30T17:25:06.087Z,12.48
2018-04-30T17:27:34.255Z,11.78
2018-04-30T17:30:02.425Z,12.12
2018-04-30T17:32:30.593Z,12.06
2018-04-30T17:34:58.833Z,11.55
2018-04-30T17:37:27.028Z,10.97
2018-04-30T17:39:55.186Z,11.69
2018-04-30T17:42:23.361Z,11.36
2018-04-30T17:44:51.534Z,11.77
2018-04-30T17:47:19.717Z,11.32
2018-04-30T17:49:47.893Z,11.40
2018-04-30T17:52:16.100Z,11.30
2018-04-30T17:54:44.257Z,11.30
2018-04-30T17:57:12.447Z,11.31
2018-04-30T17:59:40.608Z,11.10
2018-04-30T18:02:08.782Z,11.20
2018-04-30T18:04:36.996Z,11.04
2018-04-30T18:07:05.194Z,11.08
2018-04-30T18:09:33.343Z,11.03
2018-04-30T18:12:01.506Z,10.36
2018-04-30T18:14:29.674Z,10.39
2018-04-30T18:16:57.822Z,10.53
2018-04-30T18:19:26.018Z,10.81
2018-04-30T18:21:54.220Z,10.48
2018-04-30T18:24:22.380Z,10.16
2018-04-30T18:26:50.592Z,10.23
2018-04-30T18:29:18.723Z,10.20
2018-04-30T18:31:46.889Z,10.52
2018-04-30T18:34:15.050Z,10.39
2018-04-30T18:36:43.187Z,10.29
2018-04-30T18:39:11.357Z,10.23
2018-04-30T18:41:39.530Z,10.34
2018-04-30T18:44:07.707Z,10.56
2018-04-30T18:46:35.900Z,10.16
2018-04-30T18:49:04.053Z,9.79
2018-04-30T18:51:32.245Z,10.00
2018-04-30T18:54:00.433Z,10.37
2018-04-30T18:56:28.594Z,10.14
2018-04-30T18:58:56.781Z,9.94
2018-04-30T19:01:24.928Z,9.93
2018-04-30T19:03:53.102Z,9.91
2018-04-30T19:06:21.252Z,10.13
2018-04-30T19:08:49.459Z,9.77
2018-04-30T19:11:17.641Z,9.66
2018-04-30T19:13:45.790Z,9.78
2018-04-30T19:16:13.975Z,9.75
2018-04-30T19:18:42.161Z,9.43
2018-04-30T19:21:10.381Z,9.73
2018-04-30T19:23:38.480Z,9.55
2018-04-30T19:26:06.672Z,9.28
2018-04-30T19:28:34.803Z,9.01
2018-04-30T19:31:02.983Z,8.77
2018-04-30T19:33:31.151Z,8.84
2018-04-30T19:35:59.306Z,9.08
2018-04-30T19:38:27.464Z,9.13
2018-04-30T19:40:55.802Z,8.85
2018-04-30T19:43:24.004Z,8.65
2018-04-30T19:45:52.181Z,8.73
2018-04-30T19:48:20.662Z,8.85
2018-04-30T19:50:48.817Z,8.36
2018-04-30T19:53:16.958Z,8.15
2018-04-30T19:55:45.156Z,8.65
2018-04-30T19:58:13.319Z,8.48
2018-04-30T20:00:41.483Z,8.39
2018-04-30T20:03:10.018Z,8.23
2018-04-30T20:05:38.208Z,8.49
2018-04-30T20:08:06.349Z,8.23
2018-04-30T20:10:34.526Z,8.25
2018-04-30T20:13:02.670Z,8.30
2018-04-30T20:15:30.963Z,7.86
2018-04-30T20:17:59.150Z,8.22
2018-04-30T20:20:27.337Z,8.09
2018-04-30T20:22:55.485Z,8.02
2018-04-30T20:25:23.643Z,8.14
2018-04-30T20:27:51.830Z,7.86
2018-04-30T20:30:20.018Z,8.17
2018-04-30T20:32:48.999Z,8.07
2018-04-30T20:35:17.172Z,7.52
2018-04-30T20:37:45.363Z,7.82
2018-04-30T20:40:13.631Z,7.93
2018-04-30T20:42:41.781Z,8.08
2018-04-30T20:45:09.984Z,7.94
2018-04-30T20:47:38.168Z,8.08
2018-04-30T20:50:06.303Z,8.08
2018-04-30T20:52:34.492Z,8.17
2018-04-30T20:55:02.677Z,8.40
2018-04-30T20:57:30.836Z,8.09
2018-04-30T20:59:59.014Z,8.10
2018-04-30T21:02:27.173Z,8.40
2018-04-30T21:04:55.346Z,8.25
2018-04-30T21:07:23.497Z,8.24
2018-04-30T21:09:52.459Z,8.18
2018-04-30T21:12:20.625Z,8.25
2018-04-30T21:14:48.769Z,8.12
2018-04-30T21:17:17.008Z,7.75
2018-04-30T21:19:45.138Z,7.63
2018-04-30T21:22:13.299Z,8.17
2018-04-30T21:24:41.502Z,8.23
2018-04-30T21:27:09.657Z,7.69
2018-04-30T21:29:38.199Z,7.76
2018-04-30T21:32:06.362Z,7.80
2018-04-30T21:34:34.634Z,7.85
2018-04-30T21:37:02.735Z,7.70
2018-04-30T21:39:30.884Z,7.77
2018-04-30T21:41:59.071Z,7.79
2018-04-30T21:44:27.263Z,7.98
2018-04-30T21:46:55.445Z,7.85
2018-04-30T21:49:23.590Z,7.73
2018-04-30T21:51:51.763Z,7.51
2018-04-30T21:54:19.943Z,7.50
2018-04-30T21:56:48.247Z,7.83
2018-04-30T21:59:16.428Z,8.10
2018-04-30T22:01:44.591Z,7.83
2018-04-30T22:04:12.764Z,7.95
2018-04-30T22:06:40.952Z,7.70
2018-04-30T22:09:09.111Z,7.34
2018-04-30T22:11:37.299Z,7.50
2018-04-30T22:14:05.486Z,7.18
2018-04-30T22:16:33.630Z,7.43
2018-04-30T22:19:01.816Z,7.63
2018-04-30T22:21:29.976Z,7.67
2018-04-30T22:23:58.137Z,7.81
2018-04-30T22:26:26.344Z,7.42
2018-04-30T22:28:54.493Z,7.74
2018-04-30T22:31:22.651Z,7.54
2018-04-30T22:33:50.845Z,7.63
2018-04-30T22:36:19.006Z,7.93
2018-04-30T22:38:47.215Z,7.79
2018-04-30T22:41:15.413Z,7.84
2018-04-30T22:43:43.571Z,7.22
2018-04-30T22:46:11.790Z,7.48
2018-04-30T22:48:39.956Z,7.52
2018-04-30T22:51:08.110Z,7.72
2018-04-30T22:53:36.267Z,7.81
2018-04-30T22:56:04.454Z,7.76
2018-04-30T22:58:32.632Z,7.89
2018-04-30T23:01:00.810Z,7.81
2018-04-30T23:03:28.970Z,7.98
2018-04-30T23:05:57.130Z,7.81
2018-04-30T23:08:25.297Z,7.94
2018-04-30T23:10:53.464Z,7.93
2018-04-30T23:13:21.651Z,8.15
2018-04-30T23:15:49.810Z,8.14
2018-04-30T23:18:17.963Z,8.03
2018-04-30T23:20:46.137Z,8.07
2018-04-30T23:23:14.637Z,7.63
2018-04-30T23:25:42.745Z,7.77
2018-04-30T23:28:10.921Z,7.94
2018-04-30T23:30:39.092Z,7.88
2018-04-30T23:33:07.236Z,7.64
2018-04-30T23:35:35.410Z,7.82
2018-04-30T23:38:03.555Z,7.56
2018-04-30T23:40:31.725Z,7.48
2018-04-30T23:42:59.906Z,7.67
2018-04-30T23:45:28.071Z,7.82
2018-04-30T23:47:56.225Z,7.44
2018-04-30T23:50:24.396Z,7.34
2018-04-30T23:52:52.568Z,7.39
2018-04-30T23:55:20.696Z,7.36
2018-04-30T23:57:48.865Z,7.35
